createdAt,value
2023-02-14T00:02:03.400Z,29.88
2023-02-14T00:04:38.429Z,42.38
2023-02-14T00:07:05.710Z,35.00
2023-02-14T00:09:32.916Z,37.63
2023-02-14T00:11:59.585Z,30.95
2023-02-14T00:14:50.045Z,33.72
2023-02-14T00:17:19.897Z,31.55
2023-02-14T00:19:46.615Z,30.67
2023-02-14T00:22:13.155Z,26.13
2023-02-14T00:24:41.975Z,30.88
2023-02-14T00:27:08.724Z,31.75
2023-02-14T00:29:41.038Z,30.23
2023-02-14T00:32:07.531Z,36.30
2023-02-14T00:34:36.376Z,30.00
2023-02-14T00:37:03.812Z,33.03
2023-02-14T00:39:33.306Z,31.38
2023-02-14T00:41:59.719Z,30.27
2023-02-14T00:44:30.897Z,29.13
2023-02-14T00:46:57.507Z,31.27
2023-02-14T00:49:23.881Z,40.63
2023-02-14T00:51:50.582Z,31.77
2023-02-14T00:54:17.195Z,30.70
2023-02-14T00:56:45.916Z,31.52
2023-02-14T00:59:14.734Z,34.05
2023-02-14T01:01:41.200Z,29.90
2023-02-14T01:04:18.290Z,36.80
2023-02-14T01:06:44.832Z,31.88
2023-02-14T01:09:11.283Z,26.52
2023-02-14T01:11:38.676Z,26.58
2023-02-14T01:14:06.564Z,32.90
2023-02-14T01:16:33.315Z,28.40
2023-02-14T01:19:00.974Z,34.33
2023-02-14T01:21:38.698Z,29.05
2023-02-14T01:24:08.677Z,32.97
2023-02-14T01:26:36.226Z,27.45
2023-02-14T01:29:06.798Z,32.33
2023-02-14T01:31:35.792Z,34.85
2023-02-14T01:34:03.294Z,26.52
2023-02-14T01:36:51.318Z,26.42
2023-02-14T01:39:18.669Z,26.58
2023-02-14T01:41:56.048Z,23.83
2023-02-14T01:44:28.053Z,34.15
2023-02-14T01:46:56.504Z,25.63
2023-02-14T01:49:34.976Z,22.63
2023-02-14T01:52:10.163Z,24.20
2023-02-14T01:55:08.560Z,35.67
2023-02-14T01:57:49.386Z,32.83
2023-02-14T02:00:35.723Z,31.50
2023-02-14T02:03:10.144Z,36.38
2023-02-14T02:05:51.709Z,37.25
2023-02-14T02:08:18.248Z,24.73
2023-02-14T02:10:44.930Z,28.55
2023-02-14T02:13:21.982Z,35.90
2023-02-14T02:16:08.196Z,28.88
2023-02-14T02:18:49.826Z,24.98
2023-02-14T02:21:31.624Z,29.65
2023-02-14T02:24:09.350Z,25.57
2023-02-14T02:27:12.916Z,32.35
2023-02-14T02:29:57.466Z,25.05
2023-02-14T02:32:45.661Z,24.50
2023-02-14T02:35:46.217Z,29.73
2023-02-14T02:38:36.664Z,29.70
2023-02-14T02:41:23.966Z,25.38
2023-02-14T02:44:16.873Z,28.83
2023-02-14T02:50:11.967Z,19.75
2023-02-14T02:53:13.947Z,33.75
2023-02-14T02:56:01.787Z,29.33
2023-02-14T02:58:57.632Z,33.65
2023-02-14T03:01:30.104Z,28.13
2023-02-14T03:06:58.903Z,33.30
2023-02-14T03:09:28.389Z,35.35
2023-02-14T03:12:10.059Z,32.35
2023-02-14T03:14:52.157Z,35.33
2023-02-14T03:17:29.608Z,40.03
2023-02-14T03:20:36.956Z,32.42
2023-02-14T03:23:17.073Z,35.72
2023-02-14T03:25:52.848Z,28.83
2023-02-14T03:28:37.979Z,30.67
2023-02-14T03:31:15.672Z,36.28
2023-02-14T03:33:59.154Z,36.38
2023-02-14T03:36:32.858Z,33.08
2023-02-14T03:39:05.407Z,35.17
2023-02-14T03:41:40.861Z,33.80
2023-02-14T03:44:11.402Z,33.35
2023-02-14T03:46:53.178Z,27.58
2023-02-14T03:49:28.194Z,35.40
2023-02-14T03:51:57.282Z,35.30
2023-02-14T03:54:33.164Z,31.70
2023-02-14T03:57:14.932Z,38.95
2023-02-14T03:59:43.681Z,37.60
2023-02-14T04:02:26.985Z,34.85
2023-02-14T04:04:56.550Z,30.00
2023-02-14T04:07:24.034Z,46.75
2023-02-14T04:10:16.670Z,47.80
2023-02-14T04:12:47.223Z,34.15
2023-02-14T04:15:16.708Z,32.90
2023-02-14T04:18:04.966Z,43.80
2023-02-14T04:20:31.580Z,37.90
2023-02-14T04:22:58.199Z,31.65
2023-02-14T04:25:25.472Z,40.13
2023-02-14T04:27:52.003Z,38.75
2023-02-14T04:30:20.802Z,36.78
2023-02-14T04:32:47.674Z,36.42
2023-02-14T04:35:17.530Z,35.72
2023-02-14T04:37:47.886Z,32.50
2023-02-14T04:40:19.766Z,31.20
2023-02-14T04:42:49.434Z,37.72
2023-02-14T04:45:22.598Z,39.42
2023-02-14T04:47:51.456Z,30.60
2023-02-14T04:50:17.972Z,31.08
2023-02-14T04:52:46.737Z,30.42
2023-02-14T04:55:13.445Z,36.50
2023-02-14T04:57:40.213Z,34.13
2023-02-14T05:00:08.198Z,41.40
2023-02-14T05:02:37.391Z,39.08
2023-02-14T05:05:04.238Z,38.60
2023-02-14T05:07:30.868Z,31.65
2023-02-14T05:10:00.263Z,30.80
2023-02-14T05:12:27.253Z,33.47
2023-02-14T05:14:53.802Z,29.23
2023-02-14T05:17:20.446Z,37.65
2023-02-14T05:19:49.572Z,33.90
2023-02-14T05:22:23.066Z,40.42
2023-02-14T05:25:07.899Z,32.80
2023-02-14T05:27:42.905Z,33.70
2023-02-14T05:30:10.365Z,37.22
2023-02-14T05:32:37.128Z,36.40
2023-02-14T05:35:07.054Z,36.33
2023-02-14T05:37:34.825Z,41.75
2023-02-14T05:40:01.400Z,29.10
2023-02-14T05:42:27.885Z,34.38
2023-02-14T05:44:54.532Z,34.35
2023-02-14T05:47:33.185Z,36.35
2023-02-14T05:49:59.951Z,33.97
2023-02-14T05:52:26.835Z,31.73
2023-02-14T05:54:58.132Z,33.08
2023-02-14T05:57:26.854Z,28.63
2023-02-14T05:59:55.589Z,34.33
2023-02-14T06:02:24.413Z,28.77
2023-02-14T06:04:56.841Z,48.28
2023-02-14T06:07:33.380Z,26.77
2023-02-14T06:09:59.834Z,31.75
2023-02-14T06:12:26.311Z,33.03
2023-02-14T06:14:52.883Z,24.30
2023-02-14T06:17:26.867Z,35.40
2023-02-14T06:19:58.288Z,39.58
2023-02-14T06:22:24.746Z,33.20
2023-02-14T06:24:51.162Z,29.90
2023-02-14T06:27:19.808Z,32.83
2023-02-14T06:29:48.655Z,35.47
2023-02-14T06:32:15.208Z,28.85
2023-02-14T06:34:41.815Z,44.05
2023-02-14T06:37:17.620Z,43.90
2023-02-14T06:39:53.924Z,33.75
2023-02-14T06:42:20.583Z,41.85
2023-02-14T06:44:47.073Z,39.60
2023-02-14T06:47:13.858Z,35.97
2023-02-14T06:49:42.867Z,32.72
2023-02-14T06:52:11.869Z,29.13
2023-02-14T06:54:38.301Z,35.85
2023-02-14T06:57:07.012Z,34.35
2023-02-14T06:59:33.572Z,34.03
2023-02-14T07:02:00.283Z,25.77
2023-02-14T07:04:29.951Z,32.22
2023-02-14T07:06:57.222Z,39.30
2023-02-14T07:09:24.001Z,26.92
2023-02-14T07:11:50.730Z,34.67
2023-02-14T07:14:17.218Z,36.83
2023-02-14T07:16:44.030Z,25.50
2023-02-14T07:19:10.456Z,26.13
2023-02-14T07:21:44.343Z,32.47
2023-02-14T07:24:10.793Z,36.50
2023-02-14T07:26:37.367Z,34.05
2023-02-14T07:29:12.893Z,32.50
2023-02-14T07:31:42.186Z,36.33
2023-02-14T07:34:19.918Z,37.47
2023-02-14T07:36:49.119Z,46.53
2023-02-14T07:39:27.001Z,41.67
2023-02-14T07:41:53.701Z,34.50
2023-02-14T07:44:22.984Z,36.50
2023-02-14T07:46:52.587Z,33.75
2023-02-14T07:49:19.071Z,33.72
2023-02-14T07:51:48.055Z,32.22
2023-02-14T07:54:14.577Z,28.35
2023-02-14T07:56:42.430Z,35.05
2023-02-14T07:59:08.976Z,30.63
2023-02-14T08:01:35.897Z,37.35
2023-02-14T08:04:03.247Z,36.15
2023-02-14T08:06:29.856Z,32.63
2023-02-14T08:08:56.466Z,38.88
2023-02-14T08:11:44.349Z,34.80
2023-02-14T08:14:22.010Z,37.75
2023-02-14T08:16:50.875Z,47.30
2023-02-14T08:19:17.504Z,41.95
2023-02-14T08:21:49.404Z,41.65
2023-02-14T08:24:21.609Z,45.60
2023-02-14T08:26:48.366Z,36.58
2023-02-14T08:29:16.825Z,44.75
2023-02-14T08:31:43.372Z,45.72
2023-02-14T08:34:20.227Z,43.92
2023-02-14T08:36:52.288Z,48.90
2023-02-14T08:39:21.654Z,47.28
2023-02-14T08:41:50.654Z,46.67
2023-02-14T08:44:17.309Z,55.50
2023-02-14T08:46:46.302Z,48.38
2023-02-14T08:49:12.892Z,46.72
2023-02-14T08:51:39.538Z,47.15
2023-02-14T08:54:06.169Z,53.38
2023-02-14T08:56:36.518Z,59.28
2023-02-14T08:59:03.244Z,48.38
2023-02-14T09:01:30.011Z,51.05
2023-02-14T09:03:59.565Z,48.20
2023-02-14T09:06:28.457Z,49.17
2023-02-14T09:09:02.569Z,41.50
2023-02-14T09:11:35.131Z,45.90
2023-02-14T09:16:28.494Z,47.58
2023-02-14T09:18:56.744Z,51.20
2023-02-14T09:21:26.626Z,48.30
2023-02-14T09:23:53.796Z,62.47
2023-02-14T09:26:22.482Z,53.05
2023-02-14T09:28:48.963Z,47.33
2023-02-14T09:31:21.678Z,49.25
2023-02-14T09:33:49.843Z,42.35
2023-02-14T09:36:16.489Z,37.20
2023-02-14T09:38:46.495Z,49.70
2023-02-14T09:41:33.420Z,46.63
2023-02-14T09:44:06.473Z,53.30
2023-02-14T09:46:42.776Z,48.72
2023-02-14T09:49:17.878Z,48.13
2023-02-14T09:51:51.030Z,47.35
2023-02-14T09:58:13.596Z,37.53
2023-02-14T10:00:55.875Z,46.75
2023-02-14T10:03:45.710Z,41.10
2023-02-14T10:06:15.879Z,43.33
2023-02-14T10:08:46.631Z,41.38
2023-02-14T10:11:20.446Z,37.88
2023-02-14T10:13:59.760Z,38.10
2023-02-14T10:16:35.126Z,39.63
2023-02-14T10:19:26.287Z,32.90
2023-02-14T10:22:13.522Z,34.40
2023-02-14T10:24:50.909Z,43.17
2023-02-14T10:27:55.772Z,33.63
2023-02-14T10:30:27.124Z,35.75
2023-02-14T10:33:04.512Z,39.03
2023-02-14T10:35:54.385Z,34.38
2023-02-14T10:38:23.737Z,35.42
2023-02-14T10:41:05.941Z,32.75
2023-02-14T10:43:40.578Z,37.25
2023-02-14T10:46:35.043Z,40.53
2023-02-14T10:49:51.124Z,34.28
2023-02-14T10:52:29.828Z,37.60
2023-02-14T10:55:00.193Z,38.55
2023-02-14T10:57:35.316Z,39.38
2023-02-14T11:00:06.798Z,41.60
2023-02-14T11:03:10.940Z,34.50
2023-02-14T11:05:46.932Z,39.83
2023-02-14T11:08:33.494Z,32.97
2023-02-14T11:11:40.800Z,33.90
2023-02-14T11:14:28.846Z,38.72
2023-02-14T11:16:59.235Z,32.40
2023-02-14T11:19:30.926Z,37.40
2023-02-14T11:22:02.826Z,43.58
2023-02-14T11:24:42.343Z,41.38
2023-02-14T11:27:11.591Z,38.22
2023-02-14T11:29:40.836Z,36.35
2023-02-14T11:32:11.664Z,38.25
2023-02-14T11:35:11.208Z,38.22
2023-02-14T11:37:56.324Z,32.47
2023-02-14T11:40:40.407Z,42.72
2023-02-14T11:43:15.653Z,37.85
2023-02-14T11:45:49.177Z,39.40
2023-02-14T11:48:37.744Z,33.97
2023-02-14T11:51:14.784Z,45.28
2023-02-14T11:53:51.965Z,41.65
2023-02-14T11:56:21.178Z,30.77
2023-02-14T11:59:06.961Z,32.40
2023-02-14T12:01:36.390Z,34.50
2023-02-14T12:04:17.693Z,29.02
2023-02-14T12:06:45.893Z,37.30
2023-02-14T12:09:29.455Z,41.63
2023-02-14T12:12:02.076Z,40.40
2023-02-14T12:14:36.260Z,34.33
2023-02-14T12:17:12.901Z,37.28
2023-02-14T12:19:49.038Z,45.05
2023-02-14T12:23:10.792Z,41.95
2023-02-14T12:25:48.504Z,31.95
2023-02-14T12:28:28.350Z,32.33
2023-02-14T12:30:55.227Z,35.00
2023-02-14T12:33:37.372Z,33.50
2023-02-14T12:36:16.931Z,33.47
2023-02-14T12:39:01.351Z,36.40
2023-02-14T12:42:09.014Z,45.92
2023-02-14T12:44:44.702Z,42.30
2023-02-14T12:47:27.529Z,33.08
2023-02-14T12:50:15.629Z,33.30
2023-02-14T12:53:19.541Z,36.67
2023-02-14T12:56:17.403Z,33.97
2023-02-14T12:59:02.310Z,34.42
2023-02-14T13:02:05.246Z,43.42
2023-02-14T13:07:37.764Z,34.70
2023-02-14T13:10:13.455Z,37.95
2023-02-14T13:13:02.243Z,30.30
2023-02-14T13:15:59.686Z,35.70
2023-02-14T13:18:39.767Z,37.72
2023-02-14T13:21:10.498Z,34.90
2023-02-14T13:23:45.084Z,40.05
2023-02-14T13:26:21.739Z,33.67
2023-02-14T13:29:04.064Z,36.53
2023-02-14T13:31:33.882Z,36.53
2023-02-14T13:34:33.646Z,37.65
2023-02-14T13:37:03.698Z,35.67
2023-02-14T13:39:38.792Z,39.25
2023-02-14T13:42:08.634Z,45.78
2023-02-14T13:44:52.708Z,43.30
2023-02-14T13:47:26.365Z,37.38
2023-02-14T13:50:03.407Z,36.50
2023-02-14T13:52:49.050Z,45.92
2023-02-14T13:55:32.422Z,37.45
2023-02-14T13:58:18.311Z,35.15
2023-02-14T14:00:49.858Z,39.42
2023-02-14T14:03:28.937Z,34.40
2023-02-14T14:06:03.559Z,30.83
2023-02-14T14:08:31.511Z,34.38
2023-02-14T14:11:02.805Z,31.40
2023-02-14T14:13:45.150Z,29.55
2023-02-14T14:16:28.652Z,38.05
2023-02-14T14:19:19.929Z,41.20
2023-02-14T14:22:09.307Z,32.97
2023-02-14T14:24:36.863Z,35.72
2023-02-14T14:27:46.574Z,36.85
2023-02-14T14:30:29.230Z,32.80
2023-02-14T14:33:13.973Z,34.55
2023-02-14T14:35:51.651Z,38.95
2023-02-14T14:38:23.974Z,32.72
2023-02-14T14:43:39.459Z,36.28
2023-02-14T14:46:15.828Z,39.25
2023-02-14T14:48:51.480Z,34.70
2023-02-14T14:51:29.941Z,38.30
2023-02-14T14:54:04.731Z,32.25
2023-02-14T14:56:36.702Z,41.00
2023-02-14T14:59:54.017Z,40.10
2023-02-14T15:02:23.899Z,40.97
2023-02-14T15:04:50.530Z,40.03
2023-02-14T15:07:30.273Z,45.83
2023-02-14T15:09:59.012Z,42.10
2023-02-14T15:12:46.045Z,47.97
2023-02-14T15:15:17.034Z,43.70
2023-02-14T15:17:49.130Z,43.00
2023-02-14T15:20:29.292Z,43.03
2023-02-14T15:22:59.662Z,43.83
2023-02-14T15:25:34.011Z,56.33
2023-02-14T15:28:03.480Z,54.63
2023-02-14T15:30:33.999Z,47.72
2023-02-14T15:33:03.471Z,59.53
2023-02-14T15:35:37.382Z,59.92
2023-02-14T15:38:06.944Z,49.65
2023-02-14T15:40:35.707Z,50.72
2023-02-14T15:43:32.067Z,52.22
2023-02-14T15:46:15.281Z,54.75
2023-02-14T15:48:46.038Z,57.80
2023-02-14T15:51:21.866Z,57.50
2023-02-14T15:53:59.608Z,65.70
2023-02-14T15:56:34.960Z,63.90
2023-02-14T15:59:07.730Z,57.67
2023-02-14T16:01:56.091Z,57.25
2023-02-14T16:04:34.065Z,60.80
2023-02-14T16:07:25.854Z,61.35
2023-02-14T16:10:18.213Z,64.88
2023-02-14T16:12:57.600Z,68.30
2023-02-14T16:15:38.933Z,61.22
2023-02-14T16:18:19.002Z,75.53
2023-02-14T16:20:48.897Z,67.70
2023-02-14T16:23:21.470Z,67.93
2023-02-14T16:25:57.320Z,65.97
2023-02-14T16:28:30.816Z,56.72
2023-02-14T16:31:00.208Z,66.80
2023-02-14T16:33:30.326Z,65.43
2023-02-14T16:36:06.473Z,64.85
2023-02-14T16:38:41.413Z,65.45
2023-02-14T16:41:20.888Z,64.55
2023-02-14T16:43:50.360Z,76.15
2023-02-14T16:46:22.604Z,60.10
2023-02-14T16:48:52.659Z,59.40
2023-02-14T16:51:27.197Z,68.97
2023-02-14T16:53:58.543Z,63.40
2023-02-14T16:56:47.840Z,62.72
2023-02-14T16:59:14.421Z,67.93
2023-02-14T17:01:43.397Z,59.72
2023-02-14T17:04:12.978Z,64.82
2023-02-14T17:06:43.706Z,62.45
2023-02-14T17:09:15.577Z,76.05
2023-02-14T17:11:48.314Z,74.88
2023-02-14T17:14:21.326Z,68.28
2023-02-14T17:16:48.007Z,61.40
2023-02-14T17:19:21.219Z,62.05
2023-02-14T17:21:48.596Z,74.70
2023-02-14T17:24:15.882Z,69.95
2023-02-14T17:26:45.516Z,78.82
2023-02-14T17:29:14.218Z,69.75
2023-02-14T17:31:46.175Z,71.15
2023-02-14T17:34:16.124Z,61.08
2023-02-14T17:36:44.936Z,72.82
2023-02-14T17:39:11.563Z,73.00
2023-02-14T17:41:43.366Z,68.80
2023-02-14T17:44:10.164Z,75.00
2023-02-14T17:46:41.576Z,77.97
2023-02-14T17:49:09.947Z,85.10
2023-02-14T17:51:44.121Z,76.47
2023-02-14T17:54:10.830Z,78.53
2023-02-14T17:56:57.560Z,79.85
2023-02-14T17:59:24.472Z,82.72
2023-02-14T18:01:51.031Z,69.78
2023-02-14T18:04:30.135Z,103.15
2023-02-14T18:06:59.462Z,99.45
2023-02-14T18:09:32.367Z,98.43
2023-02-14T18:12:04.534Z,96.63
2023-02-14T18:14:31.382Z,101.90
2023-02-14T18:17:00.655Z,102.13
2023-02-14T18:19:28.305Z,107.60
2023-02-14T18:21:54.862Z,88.40
2023-02-14T18:24:32.787Z,104.63
2023-02-14T18:26:59.313Z,105.78
2023-02-14T18:29:28.314Z,104.13
2023-02-14T18:31:59.623Z,100.30
2023-02-14T18:34:30.203Z,75.30
2023-02-14T18:36:58.344Z,109.03
2023-02-14T18:39:27.308Z,150.23
2023-02-14T18:41:53.766Z,78.65
2023-02-14T18:44:25.128Z,108.45
2023-02-14T18:46:51.734Z,96.93
2023-02-14T18:49:23.954Z,117.93
2023-02-14T18:51:57.331Z,76.60
2023-02-14T18:54:23.847Z,87.15
2023-02-14T18:57:05.076Z,104.43
2023-02-14T18:59:34.093Z,157.70
2023-02-14T19:02:00.856Z,92.78
2023-02-14T19:04:27.458Z,95.88
2023-02-14T19:06:53.972Z,89.18
2023-02-14T19:09:29.469Z,112.38
2023-02-14T19:12:00.206Z,69.53
2023-02-14T19:14:26.885Z,232.25
2023-02-14T19:16:55.736Z,121.57
2023-02-14T19:19:24.776Z,106.70
2023-02-14T19:21:52.129Z,96.85
2023-02-14T19:24:25.730Z,106.65
2023-02-14T19:26:55.104Z,150.55
2023-02-14T19:29:21.958Z,91.55
2023-02-14T19:31:51.383Z,131.27
2023-02-14T19:34:33.355Z,96.97
2023-02-14T19:37:01.270Z,201.18
2023-02-14T19:39:31.332Z,135.52
2023-02-14T19:41:58.925Z,118.78
2023-02-14T19:44:31.345Z,207.18
2023-02-14T19:49:44.717Z,108.97
2023-02-14T19:52:25.812Z,104.50
2023-02-14T19:54:53.177Z,151.83
2023-02-14T19:57:22.340Z,112.00
2023-02-14T19:59:53.289Z,109.25
2023-02-14T20:02:23.589Z,112.18
2023-02-14T20:04:50.192Z,113.68
2023-02-14T20:07:19.046Z,124.43
2023-02-14T20:09:45.585Z,112.18
2023-02-14T20:12:16.931Z,164.73
2023-02-14T20:14:51.139Z,117.57
2023-02-14T20:17:32.004Z,166.18
2023-02-14T20:19:58.927Z,103.22
2023-02-14T20:22:25.696Z,116.60
2023-02-14T20:25:02.271Z,84.68
2023-02-14T20:27:33.529Z,101.72
2023-02-14T20:30:00.217Z,148.60
2023-02-14T20:32:29.774Z,138.57
2023-02-14T20:34:57.882Z,90.50
2023-02-14T20:37:27.664Z,102.10
2023-02-14T20:39:54.308Z,119.13
2023-02-14T20:42:24.233Z,120.30
2023-02-14T20:44:50.709Z,73.22
2023-02-14T20:47:17.550Z,93.25
2023-02-14T20:49:44.804Z,117.00
2023-02-14T20:52:13.608Z,74.55
2023-02-14T20:54:40.219Z,126.75
2023-02-14T20:57:06.890Z,70.15
2023-02-14T20:59:33.570Z,112.32
2023-02-14T21:02:00.516Z,74.43
2023-02-14T21:04:30.548Z,65.57
2023-02-14T21:07:07.660Z,110.85
2023-02-14T21:09:34.711Z,68.10
2023-02-14T21:12:04.719Z,80.88
2023-02-14T21:14:31.143Z,92.82
2023-02-14T21:16:58.963Z,122.00
2023-02-14T21:19:28.601Z,86.65
2023-02-14T21:21:58.065Z,83.65
2023-02-14T21:24:24.761Z,82.53
2023-02-14T21:26:51.310Z,110.78
2023-02-14T21:29:19.684Z,72.15
2023-02-14T21:31:46.455Z,66.93
2023-02-14T21:34:15.160Z,63.78
2023-02-14T21:36:42.316Z,118.90
2023-02-14T21:39:11.732Z,79.82
2023-02-14T21:41:38.327Z,49.60
2023-02-14T21:44:07.741Z,103.40
2023-02-14T21:46:38.541Z,78.78
2023-02-14T21:49:24.458Z,72.65
2023-02-14T21:51:56.139Z,54.78
2023-02-14T21:54:25.592Z,72.78
2023-02-14T21:56:52.233Z,72.25
2023-02-14T21:59:21.411Z,69.75
2023-02-14T22:01:49.813Z,61.85
2023-02-14T22:04:18.904Z,47.13
2023-02-14T22:06:45.368Z,47.50
2023-02-14T22:09:17.508Z,44.42
2023-02-14T22:11:45.377Z,48.63
2023-02-14T22:14:17.482Z,49.30
2023-02-14T22:16:56.054Z,59.75
2023-02-14T22:19:22.847Z,70.78
2023-02-14T22:21:49.298Z,72.97
2023-02-14T22:24:15.951Z,75.85
2023-02-14T22:26:47.446Z,82.93
2023-02-14T22:29:14.015Z,56.90
2023-02-14T22:31:42.949Z,98.50
2023-02-14T22:34:12.149Z,70.57
2023-02-14T22:36:48.669Z,102.03
2023-02-14T22:39:25.432Z,96.68
2023-02-14T22:41:54.877Z,110.97
2023-02-14T22:44:24.279Z,75.47
2023-02-14T22:46:50.690Z,77.57
2023-02-14T22:49:17.566Z,54.80
2023-02-14T22:51:46.446Z,57.35
2023-02-14T22:54:16.276Z,60.40
2023-02-14T22:56:51.670Z,77.22
2023-02-14T22:59:21.691Z,46.70
2023-02-14T23:01:49.710Z,65.65
2023-02-14T23:04:22.718Z,76.13
2023-02-14T23:06:52.751Z,59.50
2023-02-14T23:09:22.542Z,51.20
2023-02-14T23:11:52.435Z,46.40
2023-02-14T23:14:38.127Z,51.05
2023-02-14T23:17:14.609Z,51.65
2023-02-14T23:20:00.518Z,58.80
2023-02-14T23:22:42.070Z,57.55
2023-02-14T23:25:11.630Z,44.22
2023-02-14T23:27:47.321Z,42.30
2023-02-14T23:30:16.958Z,51.78
2023-02-14T23:32:51.061Z,56.45
2023-02-14T23:35:17.720Z,37.67
2023-02-14T23:37:46.104Z,58.35
2023-02-14T23:40:15.392Z,76.55
2023-02-14T23:42:44.245Z,38.58
2023-02-14T23:45:39.560Z,44.70
2023-02-14T23:48:06.245Z,64.43
2023-02-14T23:50:32.706Z,62.13
2023-02-14T23:52:59.802Z,51.85
2023-02-14T23:55:28.662Z,48.45
2023-02-14T23:57:55.273Z,41.17
